Time;durP1;ratioP1;P1;durP2;ratioP2;P2;SDS_P1;SDS_P2;PMS_P1;PMS_P2;Temp;Humidity;BMP_temperature;BMP_pressure;BME280_temperature;BME280_humidity;BME280_pressure;Samples;Min_cycle;Max_cycle;Signal;HPM_P1;HPM_P2
2022/01/11 00:00:44;;;;;;;32.63;20.07;;;1.40;99.90;;;;;;4919558;29;20222;-79
2022/01/11 00:03:10;;;;;;;29.60;19.93;;;1.30;99.90;;;;;;4919272;29;20188;-78
2022/01/11 00:05:42;;;;;;;27.90;19.60;;;1.20;99.90;;;;;;4917405;29;20298;-79
2022/01/11 00:08:10;;;;;;;31.80;19.60;;;1.10;99.90;;;;;;4917272;29;20180;-79
2022/01/11 00:10:47;;;;;;;39.07;20.40;;;1.20;99.90;;;;;;4917521;29;20187;-78
2022/01/11 00:13:14;;;;;;;31.33;19.27;;;1.20;99.90;;;;;;4917036;29;20811;-79
2022/01/11 00:15:40;;;;;;;31.53;20.17;;;1.20;99.90;;;;;;4916184;29;20204;-78
2022/01/11 00:18:05;;;;;;;35.73;22.40;;;1.00;99.90;;;;;;4916129;29;20274;-78
2022/01/11 00:20:31;;;;;;;31.07;19.23;;;1.00;99.90;;;;;;4916354;29;20180;-78
2022/01/11 00:24:28;;;;;;;34.30;19.90;;;1.00;99.90;;;;;;4916563;29;20186;-79
2022/01/11 00:25:44;;;;;;;33.13;19.70;;;1.10;99.90;;;;;;4916858;29;20196;-79
2022/01/11 00:28:12;;;;;;;31.70;20.03;;;1.00;99.90;;;;;;4917610;29;20179;-78
2022/01/11 00:30:40;;;;;;;34.27;19.67;;;1.00;99.90;;;;;;4917739;29;20184;-78
2022/01/11 00:33:10;;;;;;;30.50;19.87;;;1.10;99.90;;;;;;4900094;29;20188;-78
2022/01/11 00:35:41;;;;;;;30.97;20.77;;;1.10;99.90;;;;;;4917031;29;20211;-78
2022/01/11 00:38:16;;;;;;;38.27;20.37;;;1.20;99.90;;;;;;4917202;29;20272;-78
2022/01/11 00:41:05;;;;;;;33.23;19.60;;;1.10;99.90;;;;;;4915955;29;20175;-78
2022/01/11 00:43:33;;;;;;;33.63;20.63;;;0.90;99.90;;;;;;4917135;29;20187;-78
2022/01/11 00:45:59;;;;;;;33.50;20.47;;;0.90;99.90;;;;;;4916473;29;20231;-78
2022/01/11 00:48:26;;;;;;;35.30;20.33;;;1.00;99.90;;;;;;4917440;29;20187;-78
2022/01/11 00:50:52;;;;;;;30.70;20.60;;;1.00;99.90;;;;;;4917341;29;20183;-77
2022/01/11 00:53:18;;;;;;;30.00;19.10;;;1.00;99.90;;;;;;4918058;29;20657;-80
2022/01/11 00:55:47;;;;;;;32.20;20.63;;;1.00;99.90;;;;;;4917414;29;20203;-78
2022/01/11 00:58:14;;;;;;;32.53;19.23;;;0.90;99.90;;;;;;4917629;29;20191;-79
2022/01/11 01:00:39;;;;;;;30.37;19.43;;;0.90;99.90;;;;;;4917835;29;20204;-79
2022/01/11 01:03:06;;;;;;;30.40;18.77;;;0.90;99.90;;;;;;4917720;29;20188;-79
2022/01/11 01:05:32;;;;;;;32.10;20.33;;;0.70;99.90;;;;;;4916779;29;20199;-78
2022/01/11 01:07:59;;;;;;;35.00;21.17;;;0.70;99.90;;;;;;4917503;29;20247;-79
2022/01/11 01:10:26;;;;;;;34.70;21.17;;;0.70;99.90;;;;;;4918147;29;20648;-78
2022/01/11 01:12:56;;;;;;;41.80;23.17;;;0.80;99.90;;;;;;4917489;29;20187;-78
2022/01/11 01:15:24;;;;;;;36.17;21.00;;;0.80;99.90;;;;;;4916941;29;20196;-78
2022/01/11 01:17:52;;;;;;;33.23;20.77;;;0.80;99.90;;;;;;4917974;29;20219;-77
2022/01/11 01:20:19;;;;;;;33.47;21.10;;;0.80;99.90;;;;;;4918335;29;20211;-79
2022/01/11 01:22:50;;;;;;;32.10;20.73;;;0.80;99.90;;;;;;4917453;29;20192;-78
2022/01/11 01:25:16;;;;;;;28.80;18.87;;;0.80;99.90;;;;;;4918485;29;20715;-79
2022/01/11 01:27:42;;;;;;;35.93;21.37;;;0.80;99.90;;;;;;4917927;29;20657;-79
2022/01/11 01:30:08;;;;;;;34.07;21.90;;;0.80;99.90;;;;;;4919101;29;20236;-79
2022/01/11 01:32:33;;;;;;;34.57;21.23;;;0.80;99.90;;;;;;4918750;29;20187;-79
2022/01/11 01:35:03;;;;;;;36.93;21.53;;;0.90;99.90;;;;;;4918055;29;20200;-78
2022/01/11 01:37:29;;;;;;;35.43;23.00;;;1.00;99.90;;;;;;4918629;29;20226;-79
2022/01/11 01:39:55;;;;;;;35.77;22.27;;;0.90;99.90;;;;;;4918757;29;20180;-79
2022/01/11 01:42:28;;;;;;;35.90;21.57;;;1.00;99.90;;;;;;4918626;29;20191;-78
2022/01/11 01:44:54;;;;;;;32.27;18.87;;;0.90;99.90;;;;;;4919011;29;20276;-80
2022/01/11 01:47:19;;;;;;;32.80;20.60;;;0.80;99.90;;;;;;4919469;29;20176;-80
2022/01/11 01:49:45;;;;;;;32.33;20.33;;;1.10;99.90;;;;;;4920761;29;20374;-79
2022/01/11 01:52:12;;;;;;;32.20;20.57;;;0.80;99.90;;;;;;4921115;29;20628;-79
2022/01/11 01:54:38;;;;;;;36.23;20.57;;;0.80;99.90;;;;;;4920199;29;20278;-80
2022/01/11 01:57:04;;;;;;;30.33;19.10;;;0.90;99.90;;;;;;4921716;29;20252;-79
2022/01/11 01:59:30;;;;;;;34.97;21.07;;;0.90;99.90;;;;;;4921583;29;20223;-79
2022/01/11 02:01:56;;;;;;;32.47;20.97;;;0.90;99.90;;;;;;4921099;29;20606;-78
2022/01/11 02:04:22;;;;;;;35.93;21.77;;;0.90;99.90;;;;;;4920408;29;20211;-78
2022/01/11 02:06:47;;;;;;;37.67;21.67;;;0.90;99.90;;;;;;4926540;29;20188;-80
2022/01/11 02:09:17;;;;;;;33.80;21.70;;;1.00;99.90;;;;;;4941068;29;20176;-79
2022/01/11 02:11:43;;;;;;;35.13;20.73;;;1.00;99.90;;;;;;4930825;29;20267;-77
2022/01/11 02:14:09;;;;;;;34.17;21.63;;;0.90;99.90;;;;;;4919539;29;20187;-76
2022/01/11 02:16:35;;;;;;;34.50;20.77;;;0.70;99.90;;;;;;4918201;29;20220;-77
2022/01/11 02:19:01;;;;;;;32.57;20.57;;;0.80;99.90;;;;;;4918900;29;20202;-77
2022/01/11 02:21:27;;;;;;;33.17;20.17;;;0.80;99.90;;;;;;4918783;29;20267;-77
2022/01/11 02:23:56;;;;;;;36.93;20.90;;;0.80;99.90;;;;;;4919016;29;20204;-77
2022/01/11 02:26:22;;;;;;;33.30;19.00;;;0.70;99.90;;;;;;4918914;29;20667;-77
2022/01/11 02:28:48;;;;;;;33.47;20.60;;;0.60;99.90;;;;;;4919120;29;20186;-77
2022/01/11 02:31:14;;;;;;;36.53;21.17;;;0.60;99.90;;;;;;4918731;29;20188;-77
2022/01/11 02:33:44;;;;;;;28.10;20.10;;;0.70;99.90;;;;;;4918393;29;20184;-77
2022/01/11 02:36:18;;;;;;;33.63;20.37;;;0.70;99.90;;;;;;4917855;29;20226;-75
2022/01/11 02:38:46;;;;;;;33.70;20.50;;;0.60;99.90;;;;;;4918417;29;20176;-77
2022/01/11 02:41:11;;;;;;;31.17;21.17;;;0.70;99.90;;;;;;4918796;29;20206;-77
2022/01/11 02:43:43;;;;;;;30.10;19.93;;;0.70;99.90;;;;;;4918254;29;20176;-76
2022/01/11 02:46:09;;;;;;;37.83;21.87;;;0.80;99.90;;;;;;4917518;29;20228;-77
2022/01/11 02:48:37;;;;;;;31.43;20.80;;;0.80;99.90;;;;;;4918160;29;20274;-76
2022/01/11 02:51:03;;;;;;;34.53;20.37;;;0.70;99.90;;;;;;4918164;29;20176;-77
2022/01/11 02:53:29;;;;;;;33.20;20.43;;;0.80;99.90;;;;;;4919455;29;20183;-77
2022/01/11 02:55:55;;;;;;;30.83;20.47;;;0.90;99.90;;;;;;4918539;29;20621;-77
2022/01/11 02:58:20;;;;;;;31.00;19.93;;;0.90;99.90;;;;;;4919686;29;20183;-77
2022/01/11 03:00:46;;;;;;;28.77;19.57;;;0.90;99.90;;;;;;4919007;29;20653;-78
2022/01/11 03:03:15;;;;;;;34.67;19.83;;;0.90;99.90;;;;;;4919043;29;20620;-76
2022/01/11 03:05:48;;;;;;;28.90;18.77;;;0.90;99.90;;;;;;4918030;29;20197;-77
2022/01/11 03:08:15;;;;;;;30.80;19.07;;;0.80;99.90;;;;;;4918408;29;20188;-77
2022/01/11 03:10:41;;;;;;;28.87;17.87;;;0.80;99.90;;;;;;4918530;29;20607;-77
2022/01/11 03:13:09;;;;;;;32.23;19.67;;;0.90;99.90;;;;;;4918516;29;20194;-77
2022/01/11 03:15:36;;;;;;;31.53;18.97;;;0.80;99.90;;;;;;4918309;29;20235;-78
2022/01/11 03:18:04;;;;;;;31.77;19.37;;;0.70;99.90;;;;;;4917285;29;20227;-77
2022/01/11 03:20:30;;;;;;;29.80;17.97;;;0.70;99.90;;;;;;4919405;29;20195;-77
2022/01/11 03:22:56;;;;;;;29.43;19.23;;;0.80;99.90;;;;;;4919720;29;20670;-77
2022/01/11 03:25:21;;;;;;;32.33;19.07;;;0.90;99.90;;;;;;4919595;29;20192;-77
2022/01/11 03:27:47;;;;;;;33.10;19.37;;;0.80;99.90;;;;;;4920350;29;20244;-78
2022/01/11 03:30:13;;;;;;;29.73;19.00;;;0.90;99.90;;;;;;4920224;29;20180;-78
2022/01/11 03:32:39;;;;;;;32.50;19.37;;;0.90;99.90;;;;;;4919047;29;20236;-77
2022/01/11 03:35:06;;;;;;;32.37;20.53;;;1.00;99.90;;;;;;4919110;29;20218;-78
2022/01/11 03:37:31;;;;;;;34.97;20.57;;;1.00;99.90;;;;;;4920409;29;20220;-77
2022/01/11 03:39:57;;;;;;;29.13;20.33;;;1.00;99.90;;;;;;4920645;29;20184;-77
2022/01/11 03:42:22;;;;;;;34.80;20.20;;;1.00;99.90;;;;;;4920348;29;20188;-78
2022/01/11 03:44:50;;;;;;;30.17;19.47;;;0.90;99.90;;;;;;4919452;29;20628;-77
2022/01/11 03:47:16;;;;;;;28.73;18.67;;;0.80;99.90;;;;;;4901355;29;20262;-78
2022/01/11 03:49:42;;;;;;;32.43;19.70;;;0.80;99.90;;;;;;4918264;29;20180;-77
2022/01/11 03:52:07;;;;;;;41.77;23.03;;;0.80;99.90;;;;;;4918457;29;20674;-78
2022/01/11 03:54:50;;;;;;;33.93;21.03;;;0.90;99.90;;;;;;4919076;29;20183;-78
2022/01/11 03:57:16;;;;;;;30.97;19.80;;;1.00;99.90;;;;;;4920881;29;20900;-77
2022/01/11 03:59:41;;;;;;;34.40;20.47;;;0.90;99.90;;;;;;4920866;29;20203;-77
2022/01/11 04:02:07;;;;;;;32.60;19.90;;;0.90;99.90;;;;;;4922424;29;20599;-78
2022/01/11 04:04:32;;;;;;;35.63;21.93;;;0.90;99.90;;;;;;4917523;29;20222;-77
2022/01/11 04:07:00;;;;;;;37.27;22.60;;;1.00;99.90;;;;;;4917686;29;20195;-77
2022/01/11 04:09:25;;;;;;;40.07;23.70;;;1.10;99.90;;;;;;4917478;29;20231;-77
2022/01/11 04:11:51;;;;;;;50.93;25.70;;;1.10;99.90;;;;;;4917074;29;20183;-77
2022/01/11 04:14:16;;;;;;;46.70;24.60;;;1.20;99.90;;;;;;4917156;29;20188;-77
2022/01/11 04:16:42;;;;;;;48.07;25.63;;;1.30;99.90;;;;;;4916354;29;20243;-76
2022/01/11 04:19:08;;;;;;;49.37;25.87;;;1.30;99.90;;;;;;4916204;29;20191;-76
2022/01/11 04:21:34;;;;;;;51.00;28.07;;;1.30;99.90;;;;;;4916609;29;20183;-76
2022/01/11 04:23:59;;;;;;;50.13;26.23;;;1.40;99.90;;;;;;4917244;29;20238;-76
2022/01/11 04:26:25;;;;;;;50.57;27.17;;;1.40;99.90;;;;;;4916473;29;20290;-76
2022/01/11 04:28:50;;;;;;;51.97;27.80;;;1.50;99.90;;;;;;4916028;29;20191;-77
2022/01/11 04:31:16;;;;;;;46.77;26.40;;;1.50;99.90;;;;;;4915810;29;20653;-76
2022/01/11 04:33:43;;;;;;;49.53;27.03;;;1.50;99.90;;;;;;4916023;29;20191;-77
2022/01/11 04:36:10;;;;;;;50.50;28.23;;;1.50;99.90;;;;;;4916192;29;20225;-77
2022/01/11 04:38:36;;;;;;;52.67;29.40;;;1.60;99.90;;;;;;4916653;29;20258;-76
2022/01/11 04:41:01;;;;;;;50.10;28.07;;;1.60;99.90;;;;;;4916156;29;20183;-77
2022/01/11 04:43:27;;;;;;;45.80;26.87;;;1.60;99.90;;;;;;4915917;29;20259;-77
2022/01/11 04:45:53;;;;;;;46.10;26.90;;;1.70;99.90;;;;;;4915613;29;20316;-77
2022/01/11 04:48:18;;;;;;;48.70;25.60;;;1.70;99.90;;;;;;4916783;29;20187;-77
2022/01/11 04:50:45;;;;;;;45.67;26.70;;;1.70;99.90;;;;;;4916660;29;20176;-77
2022/01/11 04:53:11;;;;;;;44.20;26.23;;;1.70;99.90;;;;;;4916624;29;20184;-77
2022/01/11 04:55:36;;;;;;;41.87;25.03;;;1.70;99.90;;;;;;4916166;29;20215;-77
2022/01/11 04:58:02;;;;;;;44.77;25.50;;;1.60;99.90;;;;;;4916382;29;20184;-77
2022/01/11 05:00:28;;;;;;;41.20;24.10;;;1.70;99.90;;;;;;4915868;29;20199;-77
2022/01/11 05:02:58;;;;;;;40.63;24.20;;;1.60;99.90;;;;;;4916327;29;20202;-77
2022/01/11 05:05:28;;;;;;;40.27;24.77;;;1.60;99.90;;;;;;4915814;29;20707;-77
2022/01/11 05:07:54;;;;;;;40.63;24.40;;;1.60;99.90;;;;;;4916398;29;20180;-77
2022/01/11 05:10:20;;;;;;;44.27;24.47;;;1.60;99.90;;;;;;4916499;29;20179;-77
2022/01/11 05:12:46;;;;;;;34.53;22.80;;;1.50;99.90;;;;;;4916344;29;20263;-77
2022/01/11 05:15:12;;;;;;;36.00;22.47;;;1.50;99.90;;;;;;4916182;29;20203;-77
2022/01/11 05:17:38;;;;;;;41.83;23.13;;;1.40;99.90;;;;;;4916321;29;20247;-77
2022/01/11 05:20:06;;;;;;;41.33;23.30;;;1.40;99.90;;;;;;4916176;29;20266;-77
2022/01/11 05:22:33;;;;;;;38.63;22.80;;;1.40;99.90;;;;;;4916781;29;20188;-77
2022/01/11 05:24:58;;;;;;;40.87;23.97;;;1.40;99.90;;;;;;4916268;29;20200;-77
2022/01/11 05:27:27;;;;;;;37.23;23.27;;;1.40;99.90;;;;;;4916778;29;20194;-77
2022/01/11 05:29:52;;;;;;;38.33;22.23;;;1.40;99.90;;;;;;4916757;29;20540;-77
2022/01/11 05:32:18;;;;;;;38.77;24.73;;;1.50;99.90;;;;;;4916763;29;20236;-77
2022/01/11 05:34:43;;;;;;;37.47;23.67;;;1.50;99.90;;;;;;4917082;29;20255;-77
2022/01/11 05:37:09;;;;;;;43.87;23.70;;;1.60;99.90;;;;;;4917278;29;20279;-77
2022/01/11 05:39:36;;;;;;;39.47;24.67;;;1.50;99.90;;;;;;4917641;29;20552;-78
2022/01/11 05:42:06;;;;;;;42.80;24.57;;;1.50;99.90;;;;;;4919953;29;20266;-77
2022/01/11 05:44:32;;;;;;;46.30;26.20;;;1.40;99.90;;;;;;4920963;29;20183;-77
2022/01/11 05:46:57;;;;;;;49.27;27.10;;;1.30;99.90;;;;;;4920884;29;20183;-77
2022/01/11 05:49:23;;;;;;;46.37;27.17;;;1.40;99.90;;;;;;4920303;29;20172;-78
2022/01/11 05:51:49;;;;;;;47.33;27.93;;;1.40;99.90;;;;;;4920280;29;20513;-77
2022/01/11 05:54:14;;;;;;;44.70;27.40;;;1.40;99.90;;;;;;4920572;29;20172;-77
2022/01/11 05:56:40;;;;;;;47.57;26.73;;;1.40;99.90;;;;;;4920915;29;20219;-77
2022/01/11 05:59:05;;;;;;;49.07;28.87;;;1.50;99.90;;;;;;4922127;29;20223;-78
2022/01/11 06:01:33;;;;;;;50.07;27.63;;;1.50;99.90;;;;;;4923671;29;20584;-78
2022/01/11 06:03:59;;;;;;;48.87;28.83;;;1.40;99.90;;;;;;4922970;29;20180;-77
2022/01/11 06:06:24;;;;;;;47.30;28.03;;;1.40;99.90;;;;;;4921520;29;20677;-78
2022/01/11 06:08:50;;;;;;;50.93;28.43;;;1.50;99.90;;;;;;4922327;29;20183;-77
2022/01/11 06:11:15;;;;;;;49.23;29.33;;;1.50;99.90;;;;;;4921697;29;20710;-77
2022/01/11 06:13:41;;;;;;;43.30;27.20;;;1.60;99.90;;;;;;4921335;29;20664;-77
2022/01/11 06:16:07;;;;;;;45.77;28.43;;;1.70;99.90;;;;;;4922511;29;20228;-78
2022/01/11 06:18:34;;;;;;;52.33;28.07;;;1.70;99.90;;;;;;4939095;29;20176;-78
2022/01/11 06:21:00;;;;;;;49.87;27.60;;;1.70;99.90;;;;;;4940266;29;20195;-77
2022/01/11 06:23:26;;;;;;;50.60;28.23;;;1.70;99.90;;;;;;4941771;29;20548;-78
2022/01/11 06:25:51;;;;;;;47.47;27.83;;;1.80;99.90;;;;;;4938041;29;20267;-77
2022/01/11 06:28:17;;;;;;;45.73;26.67;;;1.80;99.90;;;;;;4921469;29;20259;-78
2022/01/11 06:30:43;;;;;;;41.30;25.53;;;1.80;99.90;;;;;;4921410;29;20704;-78
2022/01/11 06:33:09;;;;;;;44.20;26.57;;;1.90;99.90;;;;;;4921682;29;20187;-78
2022/01/11 06:35:34;;;;;;;42.63;24.33;;;1.90;99.90;;;;;;4920682;29;20196;-78
2022/01/11 06:38:00;;;;;;;44.93;26.03;;;1.90;99.90;;;;;;4920926;29;20237;-77
2022/01/11 06:40:25;;;;;;;46.47;25.67;;;1.90;99.90;;;;;;4919168;29;20184;-78
2022/01/11 06:42:52;;;;;;;42.13;25.40;;;1.90;99.90;;;;;;4920002;29;20605;-77
2022/01/11 06:45:18;;;;;;;45.17;26.03;;;1.90;99.90;;;;;;4919962;29;20321;-77
2022/01/11 06:47:44;;;;;;;42.23;24.63;;;1.90;99.90;;;;;;4924361;29;20259;-77
2022/01/11 06:50:10;;;;;;;37.33;24.10;;;1.90;99.90;;;;;;4925940;29;20199;-78
2022/01/11 06:52:36;;;;;;;44.33;25.57;;;1.90;99.90;;;;;;4922688;29;20186;-78
2022/01/11 06:55:04;;;;;;;40.83;25.90;;;1.90;99.90;;;;;;4919327;29;20200;-78
2022/01/11 06:57:30;;;;;;;48.03;27.17;;;1.90;99.90;;;;;;4919174;29;20585;-77
2022/01/11 06:59:55;;;;;;;45.10;26.03;;;1.80;99.90;;;;;;4919802;29;20196;-77
2022/01/11 07:02:21;;;;;;;44.83;25.20;;;1.90;99.90;;;;;;4920601;29;20188;-78
2022/01/11 07:04:46;;;;;;;53.03;27.50;;;1.80;99.90;;;;;;4920111;29;20299;-77
2022/01/11 07:07:12;;;;;;;52.90;26.67;;;2.00;99.90;;;;;;4919979;29;20183;-76
2022/01/11 07:09:38;;;;;;;44.93;25.97;;;2.00;99.90;;;;;;4919022;29;20187;-77
2022/01/11 07:12:04;;;;;;;41.77;24.70;;;2.10;99.90;;;;;;4919240;29;20176;-78
2022/01/11 07:14:30;;;;;;;38.60;23.57;;;2.00;99.90;;;;;;4921151;29;20262;-78
2022/01/11 07:16:55;;;;;;;38.37;23.63;;;2.10;99.90;;;;;;4920718;29;20327;-78
2022/01/11 07:19:21;;;;;;;39.83;23.70;;;2.10;99.90;;;;;;4920575;29;20179;-78
2022/01/11 07:21:47;;;;;;;38.97;22.60;;;2.00;99.90;;;;;;4921107;29;20190;-77
2022/01/11 07:24:15;;;;;;;42.40;23.87;;;1.90;99.90;;;;;;4973977;23;20278;-80
2022/01/11 07:26:41;;;;;;;34.47;21.17;;;1.90;99.90;;;;;;4964928;29;20211;-81
2022/01/11 07:29:07;;;;;;;35.10;22.50;;;2.00;99.90;;;;;;4965704;28;20213;-81
2022/01/11 07:31:41;;;;;;;36.10;22.70;;;2.00;99.90;;;;;;4965337;28;20179;-79
2022/01/11 07:34:08;;;;;;;42.07;25.10;;;1.90;99.90;;;;;;4965295;29;20702;-81
2022/01/11 07:36:34;;;;;;;34.60;23.27;;;1.80;99.90;;;;;;4964012;28;20218;-81
2022/01/11 07:39:00;;;;;;;40.53;24.37;;;1.80;99.90;;;;;;4964409;28;20171;-79
2022/01/11 07:41:25;;;;;;;34.73;22.23;;;1.70;99.90;;;;;;4964307;29;20232;-80
2022/01/11 07:43:51;;;;;;;34.13;22.27;;;1.70;99.90;;;;;;4963384;29;20291;-78
2022/01/11 07:46:17;;;;;;;34.37;21.77;;;1.80;99.90;;;;;;4962151;28;20195;-79
2022/01/11 07:48:42;;;;;;;34.50;22.13;;;1.80;99.90;;;;;;4963268;29;20189;-79
2022/01/11 07:51:08;;;;;;;38.03;23.53;;;1.70;99.90;;;;;;4963232;29;20183;-79
2022/01/11 07:53:34;;;;;;;36.03;23.43;;;1.70;99.90;;;;;;4962392;28;20194;-77
2022/01/11 07:55:59;;;;;;;38.07;23.63;;;1.80;99.90;;;;;;4961694;29;20202;-80
2022/01/11 07:58:25;;;;;;;33.00;24.20;;;1.60;99.90;;;;;;4961717;29;20179;-78
2022/01/11 08:00:52;;;;;;;41.60;23.87;;;1.60;99.90;;;;;;4961500;29;20182;-80
2022/01/11 08:03:17;;;;;;;33.40;22.53;;;1.70;99.90;;;;;;4961114;28;20191;-81
2022/01/11 08:05:43;;;;;;;40.17;24.47;;;1.80;99.90;;;;;;4960921;29;20208;-79
2022/01/11 08:08:09;;;;;;;33.07;22.90;;;1.70;99.90;;;;;;4964855;28;20238;-80
2022/01/11 08:10:34;;;;;;;41.33;24.00;;;1.70;99.90;;;;;;4963990;28;20553;-79
2022/01/11 08:13:05;;;;;;;35.00;23.63;;;1.80;99.90;;;;;;4958152;28;20192;-81
2022/01/11 08:15:32;;;;;;;38.00;23.73;;;1.80;99.90;;;;;;4942129;29;20271;-79
2022/01/11 08:17:58;;;;;;;39.47;22.73;;;1.80;99.90;;;;;;4946027;29;20210;-79
2022/01/11 08:20:24;;;;;;;39.03;24.23;;;2.00;99.90;;;;;;4943919;29;20194;-80
2022/01/11 08:22:51;;;;;;;37.07;22.00;;;2.00;99.90;;;;;;4954361;28;20181;-80
2022/01/11 08:25:17;;;;;;;39.10;24.00;;;2.10;99.90;;;;;;4948489;29;20214;-79
2022/01/11 08:27:42;;;;;;;40.67;24.93;;;1.90;99.90;;;;;;4949648;29;20179;-79
2022/01/11 08:30:08;;;;;;;40.03;23.97;;;2.00;99.90;;;;;;4949958;29;20521;-78
2022/01/11 08:32:34;;;;;;;35.10;22.47;;;2.10;99.90;;;;;;4943109;29;20235;-79
2022/01/11 08:35:00;;;;;;;37.57;22.00;;;2.20;99.90;;;;;;4943389;29;20199;-79
2022/01/11 08:37:26;;;;;;;35.67;22.50;;;2.30;99.90;;;;;;4943212;29;20219;-81
2022/01/11 08:39:51;;;;;;;32.27;21.57;;;2.40;99.90;;;;;;4951122;29;20191;-80
2022/01/11 08:42:17;;;;;;;34.40;21.87;;;2.30;99.90;;;;;;4956268;28;20283;-78
2022/01/11 08:44:46;;;;;;;39.53;22.37;;;2.40;99.90;;;;;;4958388;28;20209;-79
2022/01/11 08:47:12;;;;;;;33.97;22.70;;;2.40;99.90;;;;;;4958348;29;20194;-78
2022/01/11 08:49:38;;;;;;;35.10;22.47;;;2.40;99.90;;;;;;4954931;29;20185;-78
2022/01/11 08:52:04;;;;;;;31.00;21.17;;;2.40;99.90;;;;;;4953619;28;20179;-79
2022/01/11 08:54:30;;;;;;;37.13;22.27;;;2.50;99.90;;;;;;4959471;28;20226;-78
2022/01/11 08:56:55;;;;;;;38.80;22.83;;;2.60;99.90;;;;;;4952668;29;20207;-77
2022/01/11 08:59:23;;;;;;;32.77;21.73;;;2.60;99.90;;;;;;4952833;29;20183;-77
2022/01/11 09:01:49;;;;;;;36.37;22.23;;;2.60;99.90;;;;;;4951413;29;20212;-77
2022/01/11 09:04:16;;;;;;;36.47;22.40;;;2.70;99.90;;;;;;4947447;29;20210;-78
2022/01/11 09:06:42;;;;;;;38.97;23.30;;;2.80;99.90;;;;;;4942771;28;20209;-77
2022/01/11 09:09:08;;;;;;;36.73;23.17;;;2.80;99.90;;;;;;4943155;29;20179;-77
2022/01/11 09:11:34;;;;;;;33.87;21.87;;;2.80;99.90;;;;;;4939717;29;20179;-77
2022/01/11 09:13:59;;;;;;;41.53;27.07;;;2.60;99.90;;;;;;4936020;29;20187;-77
2022/01/11 09:16:25;;;;;;;49.07;28.37;;;2.60;99.90;;;;;;4935742;29;20241;-76
2022/01/11 09:18:51;;;;;;;43.20;25.70;;;2.70;99.90;;;;;;4935589;29;20551;-77
2022/01/11 09:21:20;;;;;;;41.97;24.30;;;2.90;99.90;;;;;;4935343;29;20183;-76
2022/01/11 09:23:49;;;;;;;40.53;23.90;;;3.00;99.90;;;;;;4917495;29;20202;-76
2022/01/11 09:26:14;;;;;;;40.60;25.80;;;3.00;99.90;;;;;;4935500;29;20296;-77
2022/01/11 09:28:40;;;;;;;39.13;24.30;;;3.00;99.90;;;;;;4942615;29;20622;-76
2022/01/11 09:31:06;;;;;;;38.57;23.03;;;3.00;99.90;;;;;;4943148;28;20196;-76
2022/01/11 09:33:32;;;;;;;38.63;23.70;;;3.00;99.90;;;;;;4941306;29;20179;-80
2022/01/11 09:35:58;;;;;;;33.93;21.63;;;3.10;99.90;;;;;;4946142;28;20198;-77
2022/01/11 09:38:24;;;;;;;31.77;20.10;;;3.30;99.90;;;;;;4949699;28;20182;-78
2022/01/11 09:40:55;;;;;;;29.43;19.37;;;3.50;99.90;;;;;;4946159;28;20175;-77
2022/01/11 09:43:22;;;;;;;31.30;21.00;;;3.50;99.90;;;;;;4939813;29;20194;-77
2022/01/11 09:45:49;;;;;;;30.17;20.17;;;3.50;99.90;;;;;;4937520;29;20565;-78
2022/01/11 09:48:18;;;;;;;28.83;19.57;;;3.50;99.90;;;;;;4939714;29;20206;-78
2022/01/11 09:50:44;;;;;;;32.70;19.97;;;3.50;99.90;;;;;;4949020;29;20203;-77
2022/01/11 09:53:10;;;;;;;35.40;19.90;;;3.60;99.90;;;;;;4946709;29;20178;-79
2022/01/11 09:55:36;;;;;;;29.40;18.90;;;3.70;99.90;;;;;;4950420;28;20269;-77
2022/01/11 09:58:04;;;;;;;28.93;18.57;;;3.60;99.90;;;;;;4947767;29;20266;-79
2022/01/11 10:00:30;;;;;;;30.93;19.30;;;3.70;99.90;;;;;;4948471;29;20195;-78
2022/01/11 10:02:55;;;;;;;32.83;19.43;;;3.80;99.90;;;;;;4955999;29;20182;-78
2022/01/11 10:05:23;;;;;;;33.57;19.20;;;3.90;99.90;;;;;;4959993;29;20226;-78
2022/01/11 10:07:49;;;;;;;32.33;18.77;;;4.00;99.90;;;;;;4960278;28;20186;-77
2022/01/11 10:10:24;;;;;;;30.57;18.90;;;4.00;90.70;;;;;;4960373;28;20179;-80
2022/01/11 10:12:58;;;;;;;27.27;17.43;;;4.10;99.90;;;;;;4960896;29;20671;-78
2022/01/11 10:15:30;;;;;;;26.63;17.30;;;4.30;27.10;;;;;;4958444;29;20274;-78
2022/01/11 10:17:55;;;;;;;27.17;18.53;;;4.30;1.00;;;;;;4959470;28;20728;-78
2022/01/11 10:20:23;;;;;;;29.03;18.10;;;4.50;44.10;;;;;;4959767;28;20206;-79
2022/01/11 10:23:01;;;;;;;26.37;16.67;;;4.70;1.00;;;;;;4961374;28;20547;-79
2022/01/11 10:25:40;;;;;;;30.60;16.90;;;4.70;1.00;;;;;;4961798;29;20218;-79
2022/01/11 10:28:06;;;;;;;24.50;15.73;;;4.70;1.00;;;;;;4966852;28;20264;-79
2022/01/11 10:30:33;;;;;;;24.27;16.73;;;5.00;1.00;;;;;;4967723;29;20643;-80
2022/01/11 10:33:03;;;;;;;23.87;16.10;;;5.30;1.00;;;;;;4967322;28;20182;-80
2022/01/11 10:35:42;;;;;;;16.87;12.10;;;5.60;1.00;;;;;;4968025;29;20210;-79
2022/01/11 10:38:09;;;;;;;17.47;12.03;;;6.30;1.00;;;;;;4964587;28;20270;-79
2022/01/11 10:40:39;;;;;;;17.80;11.50;;;6.30;1.00;;;;;;4961230;29;20225;-79
2022/01/11 10:43:07;;;;;;;16.03;11.50;;;6.60;99.90;;;;;;4962302;28;20261;-78
2022/01/11 10:45:38;;;;;;;15.60;11.63;;;6.80;99.90;;;;;;4955022;28;20223;-77
2022/01/11 10:48:10;;;;;;;14.20;9.90;;;7.00;1.00;;;;;;4949563;29;20184;-77
2022/01/11 10:50:43;;;;;;;14.13;10.03;;;7.70;99.90;;;;;;4953789;29;20715;-79
2022/01/11 10:53:16;;;;;;;14.17;10.03;;;8.10;1.00;;;;;;4958019;29;20178;-78
2022/01/11 10:55:43;;;;;;;17.47;10.27;;;7.80;1.00;;;;;;4958357;29;20257;-78
2022/01/11 10:58:11;;;;;;;11.70;8.67;;;7.80;99.90;;;;;;4958030;29;20246;-78
2022/01/11 11:00:48;;;;;;;15.33;9.47;;;8.00;1.00;;;;;;4964049;28;20186;-80
2022/01/11 11:03:17;;;;;;;10.37;7.97;;;8.30;99.90;;;;;;4960828;29;20194;-80
2022/01/11 11:06:00;;;;;;;12.33;7.47;;;8.00;1.00;;;;;;4956825;29;20233;-78
2022/01/11 11:08:30;;;;;;;11.27;7.67;;;7.80;1.00;;;;;;4952004;29;20187;-79
2022/01/11 11:10:56;;;;;;;10.73;6.97;;;8.00;1.00;;;;;;4949804;28;20272;-78
2022/01/11 11:13:25;;;;;;;15.50;10.67;;;7.70;99.90;;;;;;4946931;28;20183;-77
2022/01/11 11:15:54;;;;;;;11.70;7.00;;;8.00;99.90;;;;;;4949735;29;20210;-80
2022/01/11 11:18:27;;;;;;;10.53;7.73;;;8.00;99.90;;;;;;4952940;29;20186;-80
2022/01/11 11:20:53;;;;;;;9.93;7.33;;;8.10;99.90;;;;;;4956603;29;20180;-80
2022/01/11 11:23:19;;;;;;;5.90;4.73;;;8.40;99.90;;;;;;4956736;29;20194;-82
2022/01/11 11:25:45;;;;;;;7.40;4.80;;;9.00;26.50;;;;;;4955307;28;20194;-81
2022/01/11 11:28:11;;;;;;;3.27;2.80;;;8.10;27.50;;;;;;4953050;29;20178;-83
2022/01/11 11:30:37;;;;;;;3.67;2.20;;;7.60;1.00;;;;;;4950391;29;20183;-80
2022/01/11 11:33:02;;;;;;;4.33;2.80;;;6.80;1.00;;;;;;4947498;29;20178;-78
2022/01/11 11:35:28;;;;;;;3.17;2.30;;;6.50;1.00;;;;;;4948447;29;20278;-77
2022/01/11 11:38:01;;;;;;;2.70;2.33;;;6.00;1.00;;;;;;4947058;28;20302;-78
2022/01/11 11:40:27;;;;;;;8.53;5.17;;;5.60;1.00;;;;;;4947738;28;20235;-79
2022/01/11 11:42:59;;;;;;;8.73;3.60;;;6.90;1.00;;;;;;4950318;29;20182;-77
2022/01/11 11:45:37;;;;;;;3.40;2.70;;;6.90;1.00;;;;;;4946614;28;20202;-79
2022/01/11 11:48:10;;;;;;;10.40;5.80;;;6.10;1.00;;;;;;4948916;29;20266;-79
2022/01/11 11:51:02;;;;;;;4.30;3.13;;;6.10;1.00;;;;;;4953576;29;20295;-78
2022/01/11 11:53:29;;;;;;;4.03;3.53;;;6.00;1.00;;;;;;4948532;29;20191;-79
2022/01/11 11:56:19;;;;;;;3.10;2.53;;;7.70;1.00;;;;;;4946482;29;20202;-79
2022/01/11 11:58:56;;;;;;;3.70;3.07;;;6.90;1.00;;;;;;4948197;29;20266;-77
2022/01/11 12:01:42;;;;;;;5.67;3.80;;;6.80;1.00;;;;;;4946870;29;20183;-78
2022/01/11 12:04:37;;;;;;;9.97;5.23;;;6.70;1.00;;;;;;4939764;29;20187;-78
2022/01/11 12:07:29;;;;;;;10.40;5.47;;;6.60;1.00;;;;;;4943846;29;20257;-78
2022/01/11 12:09:55;;;;;;;6.60;4.47;;;6.40;1.00;;;;;;4940550;29;20551;-79
2022/01/11 12:12:49;;;;;;;7.67;4.80;;;6.20;1.00;;;;;;4941025;29;20266;-79
2022/01/11 12:15:21;;;;;;;9.47;5.47;;;6.10;1.00;;;;;;4939041;29;20684;-79
2022/01/11 12:18:07;;;;;;;6.30;4.63;;;5.70;80.00;;;;;;4940196;29;20215;-80
2022/01/11 12:20:38;;;;;;;5.90;4.03;;;5.70;99.90;;;;;;4931872;29;20603;-81
2022/01/11 12:23:05;;;;;;;6.57;4.23;;;5.60;99.90;;;;;;4938574;29;20199;-79
2022/01/11 12:25:33;;;;;;;9.80;5.20;;;5.40;99.90;;;;;;4938727;29;20206;-78
2022/01/11 12:28:04;;;;;;;4.90;3.87;;;5.40;99.90;;;;;;4936945;29;20187;-78
2022/01/11 12:30:32;;;;;;;6.20;4.47;;;5.40;99.90;;;;;;4939293;29;20194;-78
2022/01/11 12:33:16;;;;;;;7.73;5.27;;;5.20;99.90;;;;;;4939453;29;20175;-80
2022/01/11 12:36:09;;;;;;;5.90;3.90;;;5.10;99.90;;;;;;4936571;29;20751;-78
2022/01/11 12:38:36;;;;;;;7.73;4.40;;;5.10;99.90;;;;;;4937566;29;20603;-81
2022/01/11 12:41:29;;;;;;;9.50;5.90;;;5.10;99.90;;;;;;4939769;29;20664;-80
2022/01/11 12:47:06;;;;;;;7.40;4.10;;;5.20;99.90;;;;;;4941028;29;20178;-78